sensor_id;sensor_type;location;lat;lon;timestamp;temperature;humidity
25536;DHT22;13431;51.352;6.412;2023-02-28T00:01:29;-1.30;99.90
25536;DHT22;13431;51.352;6.412;2023-02-28T00:03:57;-1.30;99.90
25536;DHT22;13431;51.352;6.412;2023-02-28T00:06:25;-1.30;99.90
25536;DHT22;13431;51.352;6.412;2023-02-28T00:08:52;-1.30;99.90
25536;DHT22;13431;51.352;6.412;2023-02-28T00:11:20;-1.40;99.90
25536;DHT22;13431;51.352;6.412;2023-02-28T00:13:47;-1.40;99.90
25536;DHT22;13431;51.352;6.412;2023-02-28T00:16:21;-1.40;99.90
25536;DHT22;13431;51.352;6.412;2023-02-28T00:18:49;-1.50;99.90
25536;DHT22;13431;51.352;6.412;2023-02-28T00:21:18;-1.50;99.90
25536;DHT22;13431;51.352;6.412;2023-02-28T00:23:45;-1.60;99.90
25536;DHT22;13431;51.352;6.412;2023-02-28T00:26:13;-1.60;99.90
25536;DHT22;13431;51.352;6.412;2023-02-28T00:28:44;-1.60;99.90
25536;DHT22;13431;51.352;6.412;2023-02-28T00:31:11;-1.60;99.90
25536;DHT22;13431;51.352;6.412;2023-02-28T00:33:39;-1.60;99.90
25536;DHT22;13431;51.352;6.412;2023-02-28T00:36:08;-1.70;99.90
25536;DHT22;13431;51.352;6.412;2023-02-28T00:38:37;-1.70;99.90
25536;DHT22;13431;51.352;6.412;2023-02-28T00:41:05;-1.60;99.90
25536;DHT22;13431;51.352;6.412;2023-02-28T00:43:34;-1.60;99.90
25536;DHT22;13431;51.352;6.412;2023-02-28T00:46:02;-1.60;99.90
25536;DHT22;13431;51.352;6.412;2023-02-28T00:48:30;-1.60;99.90
25536;DHT22;13431;51.352;6.412;2023-02-28T00:50:57;-1.60;99.90
25536;DHT22;13431;51.352;6.412;2023-02-28T00:53:25;-1.70;99.90
25536;DHT22;13431;51.352;6.412;2023-02-28T00:55:52;-1.70;99.90
25536;DHT22;13431;51.352;6.412;2023-02-28T00:58:20;-1.70;99.90
25536;DHT22;13431;51.352;6.412;2023-02-28T01:00:47;-1.70;99.90
25536;DHT22;13431;51.352;6.412;2023-02-28T01:03:17;-1.70;99.90
25536;DHT22;13431;51.352;6.412;2023-02-28T01:05:45;-1.70;99.90
25536;DHT22;13431;51.352;6.412;2023-02-28T01:08:14;-1.80;99.90
25536;DHT22;13431;51.352;6.412;2023-02-28T01:10:42;-1.80;99.90
25536;DHT22;13431;51.352;6.412;2023-02-28T01:13:09;-1.80;99.90
25536;DHT22;13431;51.352;6.412;2023-02-28T01:15:38;-1.70;99.90
25536;DHT22;13431;51.352;6.412;2023-02-28T01:18:07;-1.80;99.90
25536;DHT22;13431;51.352;6.412;2023-02-28T01:20:37;-1.80;99.90
25536;DHT22;13431;51.352;6.412;2023-02-28T01:23:04;-1.80;99.90
25536;DHT22;13431;51.352;6.412;2023-02-28T01:25:37;-1.70;99.90
25536;DHT22;13431;51.352;6.412;2023-02-28T01:28:05;-1.80;99.90
25536;DHT22;13431;51.352;6.412;2023-02-28T01:30:34;-1.80;99.90
25536;DHT22;13431;51.352;6.412;2023-02-28T01:33:01;-1.80;99.90
25536;DHT22;13431;51.352;6.412;2023-02-28T01:35:28;-1.80;99.90
25536;DHT22;13431;51.352;6.412;2023-02-28T01:37:58;-1.80;99.90
25536;DHT22;13431;51.352;6.412;2023-02-28T01:40:41;-1.80;99.90
25536;DHT22;13431;51.352;6.412;2023-02-28T01:45:47;-1.80;99.90
25536;DHT22;13431;51.352;6.412;2023-02-28T01:48:15;-1.80;99.90
25536;DHT22;13431;51.352;6.412;2023-02-28T01:50:45;-1.90;99.90
25536;DHT22;13431;51.352;6.412;2023-02-28T01:53:17;-1.90;99.90
25536;DHT22;13431;51.352;6.412;2023-02-28T01:55:48;-2.00;99.90
25536;DHT22;13431;51.352;6.412;2023-02-28T01:58:16;-2.00;99.90
25536;DHT22;13431;51.352;6.412;2023-02-28T02:00:44;-1.90;99.90
25536;DHT22;13431;51.352;6.412;2023-02-28T02:03:14;-1.90;99.90
25536;DHT22;13431;51.352;6.412;2023-02-28T02:05:43;-1.90;99.90
25536;DHT22;13431;51.352;6.412;2023-02-28T02:08:21;-1.90;99.90
25536;DHT22;13431;51.352;6.412;2023-02-28T02:10:51;-1.90;99.90
25536;DHT22;13431;51.352;6.412;2023-02-28T02:13:38;-1.90;99.90
25536;DHT22;13431;51.352;6.412;2023-02-28T02:25:40;-2.00;99.90
25536;DHT22;13431;51.352;6.412;2023-02-28T02:34:09;-2.10;99.90
25536;DHT22;13431;51.352;6.412;2023-02-28T02:37:09;-2.10;99.90
25536;DHT22;13431;51.352;6.412;2023-02-28T02:42:15;-2.20;99.90
25536;DHT22;13431;51.352;6.412;2023-02-28T02:44:50;-2.30;99.90
25536;DHT22;13431;51.352;6.412;2023-02-28T02:47:26;-2.30;99.90
25536;DHT22;13431;51.352;6.412;2023-02-28T02:49:57;-2.30;99.90
25536;DHT22;13431;51.352;6.412;2023-02-28T02:52:32;-2.30;99.90
25536;DHT22;13431;51.352;6.412;2023-02-28T02:55:05;-2.30;99.90
25536;DHT22;13431;51.352;6.412;2023-02-28T02:57:50;-2.40;99.90
25536;DHT22;13431;51.352;6.412;2023-02-28T03:00:23;-2.30;99.90
25536;DHT22;13431;51.352;6.412;2023-02-28T03:02:53;-2.40;99.90
25536;DHT22;13431;51.352;6.412;2023-02-28T03:05:34;-2.40;99.90
25536;DHT22;13431;51.352;6.412;2023-02-28T03:08:04;-2.30;99.90
25536;DHT22;13431;51.352;6.412;2023-02-28T03:10:36;-2.40;99.90
25536;DHT22;13431;51.352;6.412;2023-02-28T03:13:54;-2.40;99.90
25536;DHT22;13431;51.352;6.412;2023-02-28T03:16:41;-2.40;99.90
25536;DHT22;13431;51.352;6.412;2023-02-28T03:30:54;-2.40;99.90
25536;DHT22;13431;51.352;6.412;2023-02-28T03:33:30;-2.50;99.90
25536;DHT22;13431;51.352;6.412;2023-02-28T03:36:04;-2.50;99.90
25536;DHT22;13431;51.352;6.412;2023-02-28T03:38:38;-2.50;99.90
25536;DHT22;13431;51.352;6.412;2023-02-28T03:41:20;-2.50;99.90
25536;DHT22;13431;51.352;6.412;2023-02-28T03:44:01;-2.60;99.90
25536;DHT22;13431;51.352;6.412;2023-02-28T03:46:34;-2.60;99.90
25536;DHT22;13431;51.352;6.412;2023-02-28T03:49:40;-2.60;99.90
25536;DHT22;13431;51.352;6.412;2023-02-28T03:52:10;-2.50;99.90
25536;DHT22;13431;51.352;6.412;2023-02-28T03:54:48;-2.50;99.90
25536;DHT22;13431;51.352;6.412;2023-02-28T04:00:27;-2.40;99.90
25536;DHT22;13431;51.352;6.412;2023-02-28T04:02:55;-2.30;99.90
25536;DHT22;13431;51.352;6.412;2023-02-28T04:05:24;-2.40;99.90
25536;DHT22;13431;51.352;6.412;2023-02-28T04:07:52;-2.40;99.90
25536;DHT22;13431;51.352;6.412;2023-02-28T04:10:20;-2.50;99.90
25536;DHT22;13431;51.352;6.412;2023-02-28T04:12:47;-2.40;99.90
25536;DHT22;13431;51.352;6.412;2023-02-28T04:15:14;-2.40;99.90
25536;DHT22;13431;51.352;6.412;2023-02-28T04:17:42;-2.40;99.90
25536;DHT22;13431;51.352;6.412;2023-02-28T04:20:09;-2.50;99.90
25536;DHT22;13431;51.352;6.412;2023-02-28T04:22:37;-2.60;99.90
25536;DHT22;13431;51.352;6.412;2023-02-28T04:25:05;-2.60;99.90
25536;DHT22;13431;51.352;6.412;2023-02-28T04:27:33;-2.60;99.90
25536;DHT22;13431;51.352;6.412;2023-02-28T04:30:00;-2.70;99.90
25536;DHT22;13431;51.352;6.412;2023-02-28T04:32:27;-2.60;99.90
25536;DHT22;13431;51.352;6.412;2023-02-28T04:34:55;-2.50;99.90
25536;DHT22;13431;51.352;6.412;2023-02-28T04:37:22;-2.50;99.90
25536;DHT22;13431;51.352;6.412;2023-02-28T04:39:54;-2.50;99.90
25536;DHT22;13431;51.352;6.412;2023-02-28T04:42:22;-2.40;99.90
25536;DHT22;13431;51.352;6.412;2023-02-28T04:44:49;-2.50;99.90
25536;DHT22;13431;51.352;6.412;2023-02-28T04:47:16;-2.50;99.90
25536;DHT22;13431;51.352;6.412;2023-02-28T04:49:43;-2.50;99.90
25536;DHT22;13431;51.352;6.412;2023-02-28T04:52:11;-2.50;99.90
25536;DHT22;13431;51.352;6.412;2023-02-28T04:54:40;-2.50;99.90
25536;DHT22;13431;51.352;6.412;2023-02-28T04:57:07;-2.60;99.90
25536;DHT22;13431;51.352;6.412;2023-02-28T04:59:34;-2.50;99.90
25536;DHT22;13431;51.352;6.412;2023-02-28T05:02:02;-2.60;99.90
25536;DHT22;13431;51.352;6.412;2023-02-28T05:04:34;-2.60;99.90
25536;DHT22;13431;51.352;6.412;2023-02-28T05:07:02;-2.60;99.90
25536;DHT22;13431;51.352;6.412;2023-02-28T05:09:30;-2.70;99.90
25536;DHT22;13431;51.352;6.412;2023-02-28T05:11:57;-2.60;99.90
25536;DHT22;13431;51.352;6.412;2023-02-28T05:14:25;-2.50;99.90
25536;DHT22;13431;51.352;6.412;2023-02-28T05:16:52;-2.50;99.90
25536;DHT22;13431;51.352;6.412;2023-02-28T05:19:19;-2.50;99.90
25536;DHT22;13431;51.352;6.412;2023-02-28T05:21:53;-2.60;99.90
25536;DHT22;13431;51.352;6.412;2023-02-28T05:24:21;-2.60;99.90
25536;DHT22;13431;51.352;6.412;2023-02-28T05:26:52;-2.60;99.90
25536;DHT22;13431;51.352;6.412;2023-02-28T05:29:20;-2.60;99.90
25536;DHT22;13431;51.352;6.412;2023-02-28T05:31:48;-2.60;99.90
25536;DHT22;13431;51.352;6.412;2023-02-28T05:34:15;-2.60;99.90
25536;DHT22;13431;51.352;6.412;2023-02-28T05:36:43;-2.60;99.90
25536;DHT22;13431;51.352;6.412;2023-02-28T05:39:11;-2.70;99.90
25536;DHT22;13431;51.352;6.412;2023-02-28T05:41:41;-2.70;99.90
25536;DHT22;13431;51.352;6.412;2023-02-28T05:44:10;-2.70;99.90
25536;DHT22;13431;51.352;6.412;2023-02-28T05:46:37;-2.80;99.90
25536;DHT22;13431;51.352;6.412;2023-02-28T05:49:05;-2.70;99.90
25536;DHT22;13431;51.352;6.412;2023-02-28T05:51:32;-2.80;99.90
25536;DHT22;13431;51.352;6.412;2023-02-28T05:54:01;-2.90;99.90
25536;DHT22;13431;51.352;6.412;2023-02-28T05:56:29;-2.90;99.90
25536;DHT22;13431;51.352;6.412;2023-02-28T05:58:56;-2.90;99.90
25536;DHT22;13431;51.352;6.412;2023-02-28T06:01:44;-2.80;99.90
25536;DHT22;13431;51.352;6.412;2023-02-28T06:04:17;-2.90;99.90
25536;DHT22;13431;51.352;6.412;2023-02-28T06:06:57;-2.80;99.90
25536;DHT22;13431;51.352;6.412;2023-02-28T06:09:25;-2.80;99.90
25536;DHT22;13431;51.352;6.412;2023-02-28T06:11:52;-2.80;99.90
25536;DHT22;13431;51.352;6.412;2023-02-28T06:14:20;-2.70;99.90
25536;DHT22;13431;51.352;6.412;2023-02-28T06:16:47;-2.70;99.90
25536;DHT22;13431;51.352;6.412;2023-02-28T06:19:15;-2.80;99.90
25536;DHT22;13431;51.352;6.412;2023-02-28T06:21:42;-2.70;99.90
25536;DHT22;13431;51.352;6.412;2023-02-28T06:24:10;-2.60;99.90
25536;DHT22;13431;51.352;6.412;2023-02-28T06:26:37;-2.60;99.90
25536;DHT22;13431;51.352;6.412;2023-02-28T06:29:05;-2.50;99.90
25536;DHT22;13431;51.352;6.412;2023-02-28T06:31:32;-2.50;99.90
25536;DHT22;13431;51.352;6.412;2023-02-28T06:34:00;-2.60;99.90
25536;DHT22;13431;51.352;6.412;2023-02-28T06:36:27;-2.60;99.90
25536;DHT22;13431;51.352;6.412;2023-02-28T06:38:55;-2.70;99.90
25536;DHT22;13431;51.352;6.412;2023-02-28T06:41:25;-2.60;99.90
25536;DHT22;13431;51.352;6.412;2023-02-28T06:43:53;-2.40;99.90
25536;DHT22;13431;51.352;6.412;2023-02-28T06:46:21;-1.60;99.90
25536;DHT22;13431;51.352;6.412;2023-02-28T06:48:49;-0.30;99.90
25536;DHT22;13431;51.352;6.412;2023-02-28T06:51:19;0.80;99.90
25536;DHT22;13431;51.352;6.412;2023-02-28T06:53:51;1.60;99.90
25536;DHT22;13431;51.352;6.412;2023-02-28T06:56:19;1.30;99.90
25536;DHT22;13431;51.352;6.412;2023-02-28T06:58:49;0.60;99.90
25536;DHT22;13431;51.352;6.412;2023-02-28T07:01:17;0.10;99.90
25536;DHT22;13431;51.352;6.412;2023-02-28T07:03:47;0.30;99.90
25536;DHT22;13431;51.352;6.412;2023-02-28T07:06:23;1.00;99.90
25536;DHT22;13431;51.352;6.412;2023-02-28T07:08:51;2.00;99.90
25536;DHT22;13431;51.352;6.412;2023-02-28T07:11:21;2.70;99.90
25536;DHT22;13431;51.352;6.412;2023-02-28T07:13:50;3.80;99.90
25536;DHT22;13431;51.352;6.412;2023-02-28T07:16:18;4.60;99.90
25536;DHT22;13431;51.352;6.412;2023-02-28T07:18:45;4.80;99.90
25536;DHT22;13431;51.352;6.412;2023-02-28T07:21:13;5.50;99.90
25536;DHT22;13431;51.352;6.412;2023-02-28T07:23:40;5.50;96.80
25536;DHT22;13431;51.352;6.412;2023-02-28T07:26:15;5.60;95.50
25536;DHT22;13431;51.352;6.412;2023-02-28T07:28:43;5.20;94.80
25536;DHT22;13431;51.352;6.412;2023-02-28T07:31:12;4.70;96.50
25536;DHT22;13431;51.352;6.412;2023-02-28T07:33:41;4.70;96.20
25536;DHT22;13431;51.352;6.412;2023-02-28T07:36:12;3.90;98.70
25536;DHT22;13431;51.352;6.412;2023-02-28T07:38:44;3.00;99.90
25536;DHT22;13431;51.352;6.412;2023-02-28T07:41:16;2.40;99.90
25536;DHT22;13431;51.352;6.412;2023-02-28T07:43:43;2.10;99.90
25536;DHT22;13431;51.352;6.412;2023-02-28T07:46:13;2.10;99.90
25536;DHT22;13431;51.352;6.412;2023-02-28T07:48:44;2.50;99.90
25536;DHT22;13431;51.352;6.412;2023-02-28T07:51:12;2.90;99.90
25536;DHT22;13431;51.352;6.412;2023-02-28T07:53:40;3.20;99.90
25536;DHT22;13431;51.352;6.412;2023-02-28T07:56:08;4.00;99.90
25536;DHT22;13431;51.352;6.412;2023-02-28T07:58:35;3.60;99.90
25536;DHT22;13431;51.352;6.412;2023-02-28T08:01:08;3.60;99.90
25536;DHT22;13431;51.352;6.412;2023-02-28T08:03:36;5.00;99.80
25536;DHT22;13431;51.352;6.412;2023-02-28T08:06:05;6.70;90.40
25536;DHT22;13431;51.352;6.412;2023-02-28T08:08:33;7.70;79.90
25536;DHT22;13431;51.352;6.412;2023-02-28T08:11:02;7.10;75.30
25536;DHT22;13431;51.352;6.412;2023-02-28T08:13:30;6.40;76.80
25536;DHT22;13431;51.352;6.412;2023-02-28T08:15:57;5.60;78.20
25536;DHT22;13431;51.352;6.412;2023-02-28T08:18:25;4.90;81.60
25536;DHT22;13431;51.352;6.412;2023-02-28T08:20:52;4.50;86.20
25536;DHT22;13431;51.352;6.412;2023-02-28T08:23:19;5.20;85.50
25536;DHT22;13431;51.352;6.412;2023-02-28T08:25:55;6.10;79.50
25536;DHT22;13431;51.352;6.412;2023-02-28T08:28:23;7.10;75.00
25536;DHT22;13431;51.352;6.412;2023-02-28T08:30:53;8.10;69.00
25536;DHT22;13431;51.352;6.412;2023-02-28T08:33:22;9.40;61.60
25536;DHT22;13431;51.352;6.412;2023-02-28T08:35:56;10.50;53.90
25536;DHT22;13431;51.352;6.412;2023-02-28T08:38:24;11.60;45.30
25536;DHT22;13431;51.352;6.412;2023-02-28T08:40:58;11.70;41.30
25536;DHT22;13431;51.352;6.412;2023-02-28T08:43:25;12.10;38.60
25536;DHT22;13431;51.352;6.412;2023-02-28T08:45:54;12.30;36.70
25536;DHT22;13431;51.352;6.412;2023-02-28T08:48:25;12.90;34.50
25536;DHT22;13431;51.352;6.412;2023-02-28T08:51:05;13.40;33.60
25536;DHT22;13431;51.352;6.412;2023-02-28T08:53:39;13.40;31.80
25536;DHT22;13431;51.352;6.412;2023-02-28T08:56:12;13.40;31.10
25536;DHT22;13431;51.352;6.412;2023-02-28T08:58:40;13.70;28.20
25536;DHT22;13431;51.352;6.412;2023-02-28T09:01:18;14.60;27.80
25536;DHT22;13431;51.352;6.412;2023-02-28T09:03:47;14.30;27.60
25536;DHT22;13431;51.352;6.412;2023-02-28T09:06:17;13.80;26.20
25536;DHT22;13431;51.352;6.412;2023-02-28T09:08:45;14.20;26.00
25536;DHT22;13431;51.352;6.412;2023-02-28T09:11:12;14.10;25.40
25536;DHT22;13431;51.352;6.412;2023-02-28T09:13:40;14.20;25.60
25536;DHT22;13431;51.352;6.412;2023-02-28T09:16:11;14.20;24.10
25536;DHT22;13431;51.352;6.412;2023-02-28T09:18:38;14.30;23.50
25536;DHT22;13431;51.352;6.412;2023-02-28T09:21:07;12.70;21.70
25536;DHT22;13431;51.352;6.412;2023-02-28T09:23:35;13.70;23.00
25536;DHT22;13431;51.352;6.412;2023-02-28T09:26:05;13.90;22.50
25536;DHT22;13431;51.352;6.412;2023-02-28T09:28:33;13.80;21.70
25536;DHT22;13431;51.352;6.412;2023-02-28T09:31:00;13.70;20.50
25536;DHT22;13431;51.352;6.412;2023-02-28T09:33:28;13.50;20.20
25536;DHT22;13431;51.352;6.412;2023-02-28T09:36:00;14.10;20.90
25536;DHT22;13431;51.352;6.412;2023-02-28T09:38:28;14.00;19.40
25536;DHT22;13431;51.352;6.412;2023-02-28T09:41:01;14.70;18.90
25536;DHT22;13431;51.352;6.412;2023-02-28T09:43:34;14.70;19.50
25536;DHT22;13431;51.352;6.412;2023-02-28T09:46:12;14.10;18.50
25536;DHT22;13431;51.352;6.412;2023-02-28T09:48:44;15.10;17.60
25536;DHT22;13431;51.352;6.412;2023-02-28T09:54:03;14.40;15.50
25536;DHT22;13431;51.352;6.412;2023-02-28T09:56:39;12.90;16.60
25536;DHT22;13431;51.352;6.412;2023-02-28T10:04:59;12.70;17.60
25536;DHT22;13431;51.352;6.412;2023-02-28T10:07:50;11.40;17.40
25536;DHT22;13431;51.352;6.412;2023-02-28T10:13:16;13.50;16.50
25536;DHT22;13431;51.352;6.412;2023-02-28T10:15:48;13.90;18.60
25536;DHT22;13431;51.352;6.412;2023-02-28T10:18:22;14.50;18.50
25536;DHT22;13431;51.352;6.412;2023-02-28T10:20:51;14.70;16.80
25536;DHT22;13431;51.352;6.412;2023-02-28T10:23:32;14.20;16.20
25536;DHT22;13431;51.352;6.412;2023-02-28T10:26:17;11.50;16.50
25536;DHT22;13431;51.352;6.412;2023-02-28T10:28:44;12.30;19.00
25536;DHT22;13431;51.352;6.412;2023-02-28T10:31:18;12.90;17.70
25536;DHT22;13431;51.352;6.412;2023-02-28T10:33:46;12.00;19.20
25536;DHT22;13431;51.352;6.412;2023-02-28T10:36:16;10.00;19.70
25536;DHT22;13431;51.352;6.412;2023-02-28T10:38:45;10.00;20.80
25536;DHT22;13431;51.352;6.412;2023-02-28T10:41:15;9.40;22.90
25536;DHT22;13431;51.352;6.412;2023-02-28T10:43:44;10.10;22.10
25536;DHT22;13431;51.352;6.412;2023-02-28T10:46:17;10.90;21.30
25536;DHT22;13431;51.352;6.412;2023-02-28T10:49:05;11.00;21.50
25536;DHT22;13431;51.352;6.412;2023-02-28T10:51:38;9.70;23.10
25536;DHT22;13431;51.352;6.412;2023-02-28T10:54:15;9.70;24.10
25536;DHT22;13431;51.352;6.412;2023-02-28T10:56:43;8.90;23.60
25536;DHT22;13431;51.352;6.412;2023-02-28T10:59:30;8.60;24.20
25536;DHT22;13431;51.352;6.412;2023-02-28T11:01:58;9.70;23.80
25536;DHT22;13431;51.352;6.412;2023-02-28T11:07:02;8.40;24.90
25536;DHT22;13431;51.352;6.412;2023-02-28T11:09:57;8.00;25.90
25536;DHT22;13431;51.352;6.412;2023-02-28T11:12:38;6.90;26.70
25536;DHT22;13431;51.352;6.412;2023-02-28T11:15:24;6.90;27.90
25536;DHT22;13431;51.352;6.412;2023-02-28T11:20:40;6.10;29.40
25536;DHT22;13431;51.352;6.412;2023-02-28T11:23:12;6.00;30.90
25536;DHT22;13431;51.352;6.412;2023-02-28T11:25:50;5.90;30.90
25536;DHT22;13431;51.352;6.412;2023-02-28T11:28:30;6.20;30.60
25536;DHT22;13431;51.352;6.412;2023-02-28T11:36:21;6.40;30.20
25536;DHT22;13431;51.352;6.412;2023-02-28T11:38:53;6.30;30.80
25536;DHT22;13431;51.352;6.412;2023-02-28T11:44:23;6.40;32.20
25536;DHT22;13431;51.352;6.412;2023-02-28T11:50:11;5.90;32.10
25536;DHT22;13431;51.352;6.412;2023-02-28T11:53:00;5.70;32.60
25536;DHT22;13431;51.352;6.412;2023-02-28T11:55:39;5.20;32.90
25536;DHT22;13431;51.352;6.412;2023-02-28T11:58:30;4.80;33.50
25536;DHT22;13431;51.352;6.412;2023-02-28T12:03:43;4.50;36.20
25536;DHT22;13431;51.352;6.412;2023-02-28T12:14:44;4.40;37.90
25536;DHT22;13431;51.352;6.412;2023-02-28T12:17:43;4.60;36.80
25536;DHT22;13431;51.352;6.412;2023-02-28T12:20:33;4.50;36.30
25536;DHT22;13431;51.352;6.412;2023-02-28T12:25:53;4.60;37.40
25536;DHT22;13431;51.352;6.412;2023-02-28T12:28:26;4.70;37.50
25536;DHT22;13431;51.352;6.412;2023-02-28T12:33:51;4.70;37.30
25536;DHT22;13431;51.352;6.412;2023-02-28T12:36:20;4.90;38.10
25536;DHT22;13431;51.352;6.412;2023-02-28T12:39:01;5.00;36.90
25536;DHT22;13431;51.352;6.412;2023-02-28T12:44:26;4.90;36.50
25536;DHT22;13431;51.352;6.412;2023-02-28T12:46:59;4.90;35.80
25536;DHT22;13431;51.352;6.412;2023-02-28T12:49:49;4.90;36.60
25536;DHT22;13431;51.352;6.412;2023-02-28T12:52:29;4.90;38.20
25536;DHT22;13431;51.352;6.412;2023-02-28T12:55:11;5.00;37.90
25536;DHT22;13431;51.352;6.412;2023-02-28T12:57:48;5.00;37.50
25536;DHT22;13431;51.352;6.412;2023-02-28T13:00:20;5.10;38.90
25536;DHT22;13431;51.352;6.412;2023-02-28T13:09:01;5.00;38.60
25536;DHT22;13431;51.352;6.412;2023-02-28T13:11:30;4.90;37.70
25536;DHT22;13431;51.352;6.412;2023-02-28T13:14:01;4.90;38.80
25536;DHT22;13431;51.352;6.412;2023-02-28T13:16:58;5.00;40.00
25536;DHT22;13431;51.352;6.412;2023-02-28T13:19:31;5.00;41.30
25536;DHT22;13431;51.352;6.412;2023-02-28T13:21:59;5.00;39.20
25536;DHT22;13431;51.352;6.412;2023-02-28T13:29:38;5.00;38.50
25536;DHT22;13431;51.352;6.412;2023-02-28T13:39:54;4.90;38.10
25536;DHT22;13431;51.352;6.412;2023-02-28T13:47:33;4.90;40.50
25536;DHT22;13431;51.352;6.412;2023-02-28T13:50:21;5.00;40.40
25536;DHT22;13431;51.352;6.412;2023-02-28T13:53:19;4.90;39.80
25536;DHT22;13431;51.352;6.412;2023-02-28T13:58:41;4.90;40.60
25536;DHT22;13431;51.352;6.412;2023-02-28T14:06:54;5.00;42.20
25536;DHT22;13431;51.352;6.412;2023-02-28T14:09:25;5.00;41.30
25536;DHT22;13431;51.352;6.412;2023-02-28T14:11:54;5.00;41.10
25536;DHT22;13431;51.352;6.412;2023-02-28T14:17:03;5.00;41.20
25536;DHT22;13431;51.352;6.412;2023-02-28T14:19:33;4.90;43.00
25536;DHT22;13431;51.352;6.412;2023-02-28T14:36:14;5.00;43.20
25536;DHT22;13431;51.352;6.412;2023-02-28T14:38:53;5.10;43.70
25536;DHT22;13431;51.352;6.412;2023-02-28T14:44:19;5.10;43.10
25536;DHT22;13431;51.352;6.412;2023-02-28T14:46:52;5.10;45.20
25536;DHT22;13431;51.352;6.412;2023-02-28T14:49:31;5.20;45.40
25536;DHT22;13431;51.352;6.412;2023-02-28T14:54:33;5.10;46.00
25536;DHT22;13431;51.352;6.412;2023-02-28T14:57:01;5.10;47.30
25536;DHT22;13431;51.352;6.412;2023-02-28T14:59:31;5.20;47.70
25536;DHT22;13431;51.352;6.412;2023-02-28T15:04:56;5.10;47.80
25536;DHT22;13431;51.352;6.412;2023-02-28T15:07:25;5.00;48.50
25536;DHT22;13431;51.352;6.412;2023-02-28T15:12:50;4.90;48.00
25536;DHT22;13431;51.352;6.412;2023-02-28T15:15:20;4.90;48.50
25536;DHT22;13431;51.352;6.412;2023-02-28T15:18:03;4.90;50.10
25536;DHT22;13431;51.352;6.412;2023-02-28T15:20:33;4.90;51.70
25536;DHT22;13431;51.352;6.412;2023-02-28T15:23:02;4.90;52.60
25536;DHT22;13431;51.352;6.412;2023-02-28T15:25:30;4.90;51.40
25536;DHT22;13431;51.352;6.412;2023-02-28T15:27:58;4.90;51.10
25536;DHT22;13431;51.352;6.412;2023-02-28T15:30:29;4.90;52.00
25536;DHT22;13431;51.352;6.412;2023-02-28T15:33:06;4.90;51.30
25536;DHT22;13431;51.352;6.412;2023-02-28T15:35:35;4.90;52.00
25536;DHT22;13431;51.352;6.412;2023-02-28T15:38:15;4.80;50.80
25536;DHT22;13431;51.352;6.412;2023-02-28T15:40:45;4.80;51.20
25536;DHT22;13431;51.352;6.412;2023-02-28T15:43:31;4.70;52.40
25536;DHT22;13431;51.352;6.412;2023-02-28T15:48:31;4.60;55.00
25536;DHT22;13431;51.352;6.412;2023-02-28T15:51:08;4.70;55.80
25536;DHT22;13431;51.352;6.412;2023-02-28T15:53:49;4.60;57.10
25536;DHT22;13431;51.352;6.412;2023-02-28T15:56:32;4.60;58.30
25536;DHT22;13431;51.352;6.412;2023-02-28T15:59:02;4.60;59.30
25536;DHT22;13431;51.352;6.412;2023-02-28T16:01:35;4.50;59.80
25536;DHT22;13431;51.352;6.412;2023-02-28T16:04:06;4.40;62.20
25536;DHT22;13431;51.352;6.412;2023-02-28T16:09:14;4.40;60.00
25536;DHT22;13431;51.352;6.412;2023-02-28T16:11:47;4.40;61.40
25536;DHT22;13431;51.352;6.412;2023-02-28T16:14:18;4.40;61.70
25536;DHT22;13431;51.352;6.412;2023-02-28T16:16:49;4.30;61.90
25536;DHT22;13431;51.352;6.412;2023-02-28T16:19:18;4.20;63.90
25536;DHT22;13431;51.352;6.412;2023-02-28T16:21:46;4.20;66.60
25536;DHT22;13431;51.352;6.412;2023-02-28T16:24:14;4.20;69.70
25536;DHT22;13431;51.352;6.412;2023-02-28T16:26:45;4.20;72.70
25536;DHT22;13431;51.352;6.412;2023-02-28T16:29:18;4.10;76.20
25536;DHT22;13431;51.352;6.412;2023-02-28T16:31:48;4.10;78.50
25536;DHT22;13431;51.352;6.412;2023-02-28T16:34:15;4.10;77.60
25536;DHT22;13431;51.352;6.412;2023-02-28T16:36:48;4.00;79.00
25536;DHT22;13431;51.352;6.412;2023-02-28T16:39:16;4.10;78.00
25536;DHT22;13431;51.352;6.412;2023-02-28T16:41:45;3.90;81.20
25536;DHT22;13431;51.352;6.412;2023-02-28T16:44:21;3.80;82.60
25536;DHT22;13431;51.352;6.412;2023-02-28T16:46:51;3.70;83.50
25536;DHT22;13431;51.352;6.412;2023-02-28T16:49:18;3.70;86.70
25536;DHT22;13431;51.352;6.412;2023-02-28T16:51:46;3.70;90.30
25536;DHT22;13431;51.352;6.412;2023-02-28T16:54:13;3.60;90.90
25536;DHT22;13431;51.352;6.412;2023-02-28T16:56:47;3.50;92.20
25536;DHT22;13431;51.352;6.412;2023-02-28T16:59:19;3.40;93.70
25536;DHT22;13431;51.352;6.412;2023-02-28T17:01:48;3.30;93.80
25536;DHT22;13431;51.352;6.412;2023-02-28T17:04:16;3.20;94.80
25536;DHT22;13431;51.352;6.412;2023-02-28T17:06:44;3.10;94.80
25536;DHT22;13431;51.352;6.412;2023-02-28T17:09:17;3.00;97.20
25536;DHT22;13431;51.352;6.412;2023-02-28T17:11:48;2.80;99.00
25536;DHT22;13431;51.352;6.412;2023-02-28T17:14:16;2.90;99.90
25536;DHT22;13431;51.352;6.412;2023-02-28T17:16:43;2.80;99.70
25536;DHT22;13431;51.352;6.412;2023-02-28T17:19:13;2.80;99.90
25536;DHT22;13431;51.352;6.412;2023-02-28T17:21:41;2.80;99.90
25536;DHT22;13431;51.352;6.412;2023-02-28T17:24:10;2.80;99.90
25536;DHT22;13431;51.352;6.412;2023-02-28T17:26:56;2.90;99.90
25536;DHT22;13431;51.352;6.412;2023-02-28T17:29:23;2.60;99.90
25536;DHT22;13431;51.352;6.412;2023-02-28T17:31:51;2.50;99.90
25536;DHT22;13431;51.352;6.412;2023-02-28T17:34:19;2.40;99.90
25536;DHT22;13431;51.352;6.412;2023-02-28T17:36:48;2.50;99.90
25536;DHT22;13431;51.352;6.412;2023-02-28T17:39:18;2.30;99.90
25536;DHT22;13431;51.352;6.412;2023-02-28T17:41:52;2.30;99.90
25536;DHT22;13431;51.352;6.412;2023-02-28T17:44:21;2.20;99.90
25536;DHT22;13431;51.352;6.412;2023-02-28T17:46:49;2.10;99.90
25536;DHT22;13431;51.352;6.412;2023-02-28T17:49:18;2.10;99.90
25536;DHT22;13431;51.352;6.412;2023-02-28T17:51:46;2.00;99.90
25536;DHT22;13431;51.352;6.412;2023-02-28T17:54:13;2.00;99.90
25536;DHT22;13431;51.352;6.412;2023-02-28T17:56:41;2.00;99.90
25536;DHT22;13431;51.352;6.412;2023-02-28T17:59:10;2.00;99.90
25536;DHT22;13431;51.352;6.412;2023-02-28T18:01:38;1.80;99.90
25536;DHT22;13431;51.352;6.412;2023-02-28T18:04:06;1.80;99.90
25536;DHT22;13431;51.352;6.412;2023-02-28T18:06:43;1.70;99.90
25536;DHT22;13431;51.352;6.412;2023-02-28T18:09:21;1.80;99.90
25536;DHT22;13431;51.352;6.412;2023-02-28T18:11:50;1.70;99.90
25536;DHT22;13431;51.352;6.412;2023-02-28T18:14:23;1.60;99.90
25536;DHT22;13431;51.352;6.412;2023-02-28T18:16:52;1.50;99.90
25536;DHT22;13431;51.352;6.412;2023-02-28T18:19:20;1.30;99.90
25536;DHT22;13431;51.352;6.412;2023-02-28T18:21:50;1.40;99.90
25536;DHT22;13431;51.352;6.412;2023-02-28T18:24:18;1.40;99.90
25536;DHT22;13431;51.352;6.412;2023-02-28T18:26:46;1.30;99.90
25536;DHT22;13431;51.352;6.412;2023-02-28T18:29:22;1.30;99.90
25536;DHT22;13431;51.352;6.412;2023-02-28T18:31:50;1.30;99.90
25536;DHT22;13431;51.352;6.412;2023-02-28T18:34:19;1.20;99.90